Time;durP1;ratioP1;P1;durP2;ratioP2;P2;SDS_P1;SDS_P2;PMS_P1;PMS_P2;Temp;Humidity;BMP_temperature;BMP_pressure;BME280_temperature;BME280_humidity;BME280_pressure;Samples;Min_cycle;Max_cycle;Signal;HPM_P1;HPM_P2
2023/08/19 00:01:46;;;;;;;34.50;31.35;;;20.80;99.90;;;;;;7368940;19;20050;-59
2023/08/19 00:04:13;;;;;;;34.78;31.77;;;20.80;99.90;;;;;;7371599;19;20014;-59
2023/08/19 00:06:40;;;;;;;34.67;31.58;;;20.80;99.90;;;;;;7370115;19;20026;-59
2023/08/19 00:09:09;;;;;;;33.88;30.75;;;20.80;99.90;;;;;;7375049;19;20022;-59
2023/08/19 00:11:37;;;;;;;33.80;30.65;;;20.80;99.90;;;;;;7365387;19;20018;-67
2023/08/19 00:14:05;;;;;;;32.22;29.42;;;20.80;99.90;;;;;;7371926;19;20113;-67
2023/08/19 00:16:33;;;;;;;31.95;29.20;;;20.80;99.90;;;;;;7375582;19;20018;-67
2023/08/19 00:19:00;;;;;;;33.63;30.67;;;20.80;99.90;;;;;;7371325;19;20035;-68
2023/08/19 00:21:27;;;;;;;34.10;30.83;;;20.80;99.90;;;;;;7375414;19;20382;-67
2023/08/19 00:23:54;;;;;;;32.78;29.98;;;20.80;99.90;;;;;;7370801;19;20667;-68
2023/08/19 00:26:20;;;;;;;34.17;31.02;;;20.90;99.90;;;;;;7373076;19;20030;-66
2023/08/19 00:28:46;;;;;;;33.58;30.55;;;20.80;99.90;;;;;;7368459;19;20022;-67
2023/08/19 00:31:12;;;;;;;31.73;28.85;;;20.90;99.90;;;;;;7375383;19;20018;-68
2023/08/19 00:33:39;;;;;;;32.45;29.33;;;20.80;99.90;;;;;;7372816;19;20019;-67
2023/08/19 00:36:06;;;;;;;30.85;27.88;;;20.90;99.90;;;;;;7371134;19;20105;-66
2023/08/19 00:38:32;;;;;;;31.23;28.50;;;20.90;99.90;;;;;;7371902;19;20142;-67
2023/08/19 00:40:59;;;;;;;31.98;29.05;;;20.90;99.90;;;;;;7370475;19;20035;-66
2023/08/19 00:43:25;;;;;;;30.95;28.08;;;20.80;99.90;;;;;;7373142;19;20022;-59
2023/08/19 00:45:52;;;;;;;30.45;27.77;;;20.80;99.90;;;;;;7370685;19;20018;-59
2023/08/19 00:48:20;;;;;;;32.30;29.33;;;20.80;99.90;;;;;;7370565;19;20015;-58
2023/08/19 00:50:46;;;;;;;30.60;27.88;;;20.80;99.90;;;;;;7371973;19;20907;-58
2023/08/19 00:53:15;;;;;;;30.02;27.52;;;20.90;99.90;;;;;;7366482;19;20647;-59
2023/08/19 00:55:42;;;;;;;30.52;27.70;;;20.90;99.90;;;;;;7367331;19;20027;-59
2023/08/19 00:58:09;;;;;;;30.63;27.75;;;20.90;99.90;;;;;;7369245;19;20497;-59
2023/08/19 01:00:35;;;;;;;31.08;28.23;;;20.80;99.90;;;;;;7372164;19;20015;-59
2023/08/19 01:03:06;;;;;;;29.98;27.38;;;20.80;99.90;;;;;;7372192;19;20021;-59
2023/08/19 01:05:47;;;;;;;31.15;28.42;;;20.80;99.90;;;;;;7373656;19;20018;-66
2023/08/19 01:08:20;;;;;;;31.20;28.40;;;20.80;99.90;;;;;;7371063;19;20028;-68
2023/08/19 01:11:07;;;;;;;30.50;27.92;;;20.80;99.90;;;;;;7370791;19;20624;-66
2023/08/19 01:13:44;;;;;;;29.42;26.83;;;20.80;99.90;;;;;;7371839;19;21600;-68
2023/08/19 01:16:30;;;;;;;31.13;28.42;;;20.80;99.90;;;;;;7367277;19;20015;-59
2023/08/19 01:19:00;;;;;;;30.65;27.88;;;20.70;99.90;;;;;;7366191;19;20026;-59
2023/08/19 01:21:27;;;;;;;28.58;26.05;;;20.70;99.90;;;;;;7366806;19;20014;-59
2023/08/19 01:23:58;;;;;;;32.35;29.50;;;20.60;99.90;;;;;;7365698;19;20026;-59
2023/08/19 01:26:27;;;;;;;29.20;26.58;;;20.60;99.90;;;;;;7368684;19;20023;-59
2023/08/19 01:28:53;;;;;;;29.65;26.70;;;20.60;99.90;;;;;;7365308;19;20065;-68
2023/08/19 01:31:19;;;;;;;29.20;26.63;;;20.60;99.90;;;;;;7374226;19;20029;-67
2023/08/19 01:33:47;;;;;;;29.02;26.52;;;20.70;99.90;;;;;;7372014;19;20032;-60
2023/08/19 01:36:31;;;;;;;30.00;27.10;;;20.70;99.90;;;;;;7372844;19;20183;-68
2023/08/19 01:39:10;;;;;;;28.90;26.33;;;20.70;99.90;;;;;;7366339;19;20073;-59
2023/08/19 01:41:37;;;;;;;30.33;27.63;;;20.60;99.90;;;;;;7365058;19;20022;-66
2023/08/19 01:44:04;;;;;;;30.60;27.45;;;20.60;99.90;;;;;;7369269;19;20018;-67
2023/08/19 01:46:31;;;;;;;29.85;27.15;;;20.60;99.90;;;;;;7369940;19;20041;-67
2023/08/19 01:48:57;;;;;;;30.23;27.55;;;20.60;99.90;;;;;;7365949;19;20421;-66
2023/08/19 01:51:23;;;;;;;29.23;26.73;;;20.60;99.90;;;;;;7370267;19;20016;-67
2023/08/19 01:53:50;;;;;;;29.88;27.13;;;20.60;99.90;;;;;;7365516;19;20748;-67
2023/08/19 01:56:17;;;;;;;29.60;26.92;;;20.60;99.90;;;;;;7378943;19;20022;-67
2023/08/19 01:58:43;;;;;;;28.73;26.15;;;20.60;99.90;;;;;;7372930;19;20049;-67
2023/08/19 02:01:13;;;;;;;27.73;25.20;;;20.60;99.90;;;;;;7373791;19;20019;-58
2023/08/19 02:03:42;;;;;;;29.05;26.17;;;20.60;99.90;;;;;;7373050;19;20482;-58
2023/08/19 02:06:08;;;;;;;29.67;26.90;;;20.60;99.90;;;;;;7374715;19;20790;-66
2023/08/19 02:08:34;;;;;;;26.45;24.08;;;20.60;99.90;;;;;;7372205;19;20332;-66
2023/08/19 02:11:02;;;;;;;29.40;26.77;;;20.60;99.90;;;;;;7371699;19;20060;-59
2023/08/19 02:13:28;;;;;;;29.52;26.60;;;20.60;99.90;;;;;;7367387;19;20089;-67
2023/08/19 02:15:55;;;;;;;28.88;25.95;;;20.60;99.90;;;;;;7373226;19;20478;-58
2023/08/19 02:18:22;;;;;;;30.05;27.30;;;20.60;99.90;;;;;;7368807;19;20026;-66
2023/08/19 02:20:48;;;;;;;28.92;26.23;;;20.70;99.90;;;;;;7371011;19;20026;-67
2023/08/19 02:23:15;;;;;;;29.75;26.88;;;20.60;99.90;;;;;;7374404;19;20374;-68
2023/08/19 02:25:41;;;;;;;29.27;26.38;;;20.60;99.90;;;;;;7378321;19;20030;-67
2023/08/19 02:28:08;;;;;;;29.88;27.10;;;20.60;99.90;;;;;;7377217;19;20643;-58
2023/08/19 02:30:34;;;;;;;30.20;27.35;;;20.60;99.90;;;;;;7371097;19;20482;-59
2023/08/19 02:33:07;;;;;;;29.67;27.02;;;20.60;99.90;;;;;;7376328;19;20018;-59
2023/08/19 02:35:34;;;;;;;29.05;26.02;;;20.60;99.90;;;;;;7372785;19;20056;-58
2023/08/19 02:38:00;;;;;;;28.60;25.65;;;20.60;99.90;;;;;;7373706;19;20022;-59
2023/08/19 02:40:31;;;;;;;30.40;27.55;;;20.60;99.90;;;;;;7371869;19;20110;-58
2023/08/19 02:42:57;;;;;;;28.85;26.15;;;20.60;99.90;;;;;;7374271;19;20023;-59
2023/08/19 02:45:24;;;;;;;29.33;26.63;;;20.60;99.90;;;;;;7372443;19;20430;-59
2023/08/19 02:47:50;;;;;;;28.35;25.67;;;20.60;99.90;;;;;;7376271;19;20019;-67
2023/08/19 02:50:17;;;;;;;30.70;27.88;;;20.60;99.90;;;;;;7371994;19;20304;-67
2023/08/19 02:52:43;;;;;;;28.98;26.27;;;20.60;99.90;;;;;;7366222;19;21994;-67
2023/08/19 02:55:10;;;;;;;29.15;26.35;;;20.60;99.90;;;;;;7373999;19;20015;-58
2023/08/19 02:57:36;;;;;;;27.77;25.15;;;20.60;99.90;;;;;;7367338;19;20029;-66
2023/08/19 03:00:03;;;;;;;28.05;25.50;;;20.60;99.90;;;;;;7373052;19;20033;-58
2023/08/19 03:02:32;;;;;;;26.98;24.38;;;20.60;99.90;;;;;;7370339;19;20023;-58
2023/08/19 03:04:58;;;;;;;27.48;24.98;;;20.60;99.90;;;;;;7370651;19;20014;-58
2023/08/19 03:07:24;;;;;;;26.80;24.40;;;20.60;99.90;;;;;;7370849;19;20018;-67
2023/08/19 03:09:51;;;;;;;27.40;24.77;;;20.60;99.90;;;;;;7370946;19;20015;-59
2023/08/19 03:12:17;;;;;;;26.67;24.30;;;20.50;99.90;;;;;;7371400;19;20011;-66
2023/08/19 03:14:44;;;;;;;27.27;24.67;;;20.50;99.90;;;;;;7373382;19;20521;-58
2023/08/19 03:17:10;;;;;;;26.83;24.20;;;20.50;99.90;;;;;;7371147;19;20015;-58
2023/08/19 03:19:36;;;;;;;26.77;24.38;;;20.50;99.90;;;;;;7370669;19;20025;-59
2023/08/19 03:22:03;;;;;;;28.13;25.35;;;20.50;99.90;;;;;;7365611;19;20474;-59
2023/08/19 03:24:29;;;;;;;27.75;25.05;;;20.40;99.90;;;;;;7375511;19;20021;-58
2023/08/19 03:26:55;;;;;;;27.50;24.77;;;20.40;99.90;;;;;;7373949;19;20025;-58
2023/08/19 03:29:24;;;;;;;26.40;23.52;;;20.40;99.90;;;;;;7373725;19;20025;-68
2023/08/19 03:31:50;;;;;;;26.23;23.83;;;20.40;99.90;;;;;;7369948;19;20018;-58
2023/08/19 03:34:17;;;;;;;27.15;24.52;;;20.30;99.90;;;;;;7372499;19;20014;-67
2023/08/19 03:36:43;;;;;;;26.48;23.73;;;20.30;99.90;;;;;;7371161;19;20020;-59
2023/08/19 03:39:09;;;;;;;26.50;23.98;;;20.30;99.90;;;;;;7370983;19;20404;-58
2023/08/19 03:41:35;;;;;;;25.08;22.45;;;20.30;99.90;;;;;;7371467;19;20029;-67
2023/08/19 03:44:02;;;;;;;25.83;23.30;;;20.30;99.90;;;;;;7365120;19;20645;-58
2023/08/19 03:46:28;;;;;;;24.95;22.55;;;20.30;99.90;;;;;;7371894;19;20018;-67
2023/08/19 03:48:54;;;;;;;25.27;21.05;;;20.30;99.90;;;;;;7371416;19;20653;-68
2023/08/19 03:51:20;;;;;;;23.25;21.05;;;20.30;99.90;;;;;;7373941;19;20056;-67
2023/08/19 03:53:46;;;;;;;23.75;21.60;;;20.30;99.90;;;;;;7372843;19;20026;-67
2023/08/19 03:56:14;;;;;;;23.67;21.48;;;20.40;99.90;;;;;;7372135;19;21075;-68
2023/08/19 03:58:40;;;;;;;23.67;21.48;;;20.40;99.90;;;;;;7376115;19;20125;-68
2023/08/19 04:01:07;;;;;;;23.80;21.38;;;20.40;99.90;;;;;;7365333;19;20023;-68
2023/08/19 04:03:36;;;;;;;22.52;20.30;;;20.40;99.90;;;;;;7372535;19;20029;-58
2023/08/19 04:06:02;;;;;;;23.13;20.83;;;20.30;99.90;;;;;;7366878;19;20026;-58
2023/08/19 04:08:29;;;;;;;23.33;20.85;;;20.30;99.90;;;;;;7375201;19;20022;-58
2023/08/19 04:11:03;;;;;;;23.45;21.25;;;20.30;99.90;;;;;;7367176;19;20698;-59
2023/08/19 04:13:30;;;;;;;23.38;21.17;;;20.30;99.90;;;;;;7371418;19;20023;-69
2023/08/19 04:16:06;;;;;;;24.95;22.60;;;20.30;99.90;;;;;;7371543;19;20026;-67
2023/08/19 04:18:34;;;;;;;23.88;21.65;;;20.30;99.90;;;;;;7372218;19;20018;-67
2023/08/19 04:21:05;;;;;;;23.98;21.08;;;20.30;99.90;;;;;;7365109;19;20033;-66
2023/08/19 04:23:35;;;;;;;22.75;20.65;;;20.30;99.90;;;;;;7369050;19;20018;-58
2023/08/19 04:26:02;;;;;;;24.17;21.73;;;20.40;99.90;;;;;;7369124;19;20018;-58
2023/08/19 04:28:29;;;;;;;23.73;21.23;;;20.30;99.90;;;;;;7368565;19;20026;-58
2023/08/19 04:31:03;;;;;;;24.85;22.38;;;20.30;99.90;;;;;;7367053;19;20655;-66
2023/08/19 04:33:31;;;;;;;23.27;21.02;;;20.40;99.90;;;;;;7369663;19;20031;-67
2023/08/19 04:35:58;;;;;;;22.63;20.52;;;20.40;99.90;;;;;;7369892;19;20030;-66
2023/08/19 04:38:25;;;;;;;23.23;20.67;;;20.40;99.90;;;;;;7373206;19;20607;-67
2023/08/19 04:40:52;;;;;;;22.40;20.00;;;20.40;99.90;;;;;;7371641;19;20022;-67
2023/08/19 04:43:21;;;;;;;20.85;18.90;;;20.40;99.90;;;;;;7372096;19;20486;-67
2023/08/19 04:45:50;;;;;;;22.08;19.95;;;20.50;99.90;;;;;;7371332;19;20486;-67
2023/08/19 04:48:16;;;;;;;20.73;18.77;;;20.50;99.90;;;;;;7370714;19;20018;-63
2023/08/19 04:50:44;;;;;;;21.00;18.92;;;20.50;99.90;;;;;;7373174;19;20449;-67
2023/08/19 04:53:11;;;;;;;19.92;17.98;;;20.50;99.90;;;;;;7367155;19;20015;-68
2023/08/19 04:55:38;;;;;;;28.83;20.58;;;20.60;99.90;;;;;;7373391;19;20014;-68
2023/08/19 04:58:05;;;;;;;20.67;18.83;;;20.60;99.90;;;;;;7367305;19;20027;-67
2023/08/19 05:00:32;;;;;;;19.55;17.65;;;20.70;99.90;;;;;;7370946;19;20467;-59
2023/08/19 05:02:58;;;;;;;19.75;17.75;;;20.80;99.90;;;;;;7363592;19;20916;-58
2023/08/19 05:05:24;;;;;;;19.90;17.85;;;20.80;99.90;;;;;;7367751;19;20014;-58
2023/08/19 05:07:51;;;;;;;19.85;17.92;;;20.90;99.90;;;;;;7363929;19;20048;-58
2023/08/19 05:10:17;;;;;;;19.13;17.25;;;21.00;99.90;;;;;;7366159;19;20018;-58
2023/08/19 05:12:43;;;;;;;18.77;16.95;;;21.00;99.90;;;;;;7368326;19;20788;-66
2023/08/19 05:15:12;;;;;;;17.58;15.88;;;21.10;99.90;;;;;;7365608;19;20019;-67
2023/08/19 05:17:38;;;;;;;17.98;16.05;;;21.10;99.90;;;;;;7368389;19;20359;-59
2023/08/19 05:20:06;;;;;;;17.77;15.98;;;21.10;99.90;;;;;;7360223;19;20021;-59
2023/08/19 05:22:32;;;;;;;17.00;15.27;;;21.20;99.90;;;;;;7367965;19;20022;-59
2023/08/19 05:24:59;;;;;;;17.75;16.08;;;21.20;99.90;;;;;;7368073;19;20026;-59
2023/08/19 05:27:28;;;;;;;17.73;16.13;;;21.20;99.90;;;;;;7366949;19;20018;-67
2023/08/19 05:29:54;;;;;;;17.65;15.85;;;21.20;99.90;;;;;;7373748;19;20832;-66
2023/08/19 05:32:20;;;;;;;17.15;15.57;;;21.10;99.90;;;;;;7375780;19;20028;-67
2023/08/19 05:34:47;;;;;;;17.45;15.75;;;21.10;99.90;;;;;;7377482;19;21997;-58
2023/08/19 05:37:13;;;;;;;18.15;15.98;;;21.20;99.90;;;;;;7368204;19;20034;-66
2023/08/19 05:39:39;;;;;;;17.00;15.45;;;21.10;99.90;;;;;;7376197;19;20035;-58
2023/08/19 05:42:06;;;;;;;17.83;16.02;;;21.10;99.90;;;;;;7368433;19;20050;-68
2023/08/19 05:44:32;;;;;;;18.02;16.23;;;21.20;99.90;;;;;;7374014;19;20014;-67
2023/08/19 05:46:58;;;;;;;16.85;15.02;;;21.20;99.90;;;;;;7369368;19;20018;-59
2023/08/19 05:49:25;;;;;;;17.98;15.30;;;21.20;99.90;;;;;;7369927;19;20030;-58
2023/08/19 05:51:51;;;;;;;17.60;15.80;;;21.20;99.90;;;;;;7373319;19;20522;-66
2023/08/19 05:54:18;;;;;;;17.38;15.70;;;21.30;99.90;;;;;;7377629;19;20057;-59
2023/08/19 05:56:44;;;;;;;16.00;14.38;;;21.20;99.90;;;;;;7370517;19;20103;-59
2023/08/19 05:59:11;;;;;;;16.45;14.18;;;21.30;99.90;;;;;;7372714;19;20668;-58
2023/08/19 06:01:37;;;;;;;15.70;14.27;;;21.30;99.90;;;;;;7372855;19;20081;-58
2023/08/19 06:04:04;;;;;;;16.58;14.90;;;21.30;99.90;;;;;;7364215;19;20015;-59
2023/08/19 06:06:30;;;;;;;16.52;14.75;;;21.30;99.90;;;;;;7375852;19;20030;-66
2023/08/19 06:08:56;;;;;;;15.77;14.20;;;21.30;99.90;;;;;;7366559;19;20022;-71
2023/08/19 06:11:48;;;;;;;15.90;14.25;;;21.30;99.90;;;;;;7368985;19;20035;-59
2023/08/19 06:14:15;;;;;;;15.85;14.20;;;21.30;99.90;;;;;;7371533;19;20037;-68
2023/08/19 06:16:41;;;;;;;16.60;14.77;;;21.40;99.90;;;;;;7373065;19;20122;-68
2023/08/19 06:19:08;;;;;;;14.25;12.85;;;21.50;99.90;;;;;;7373623;19;20029;-68
2023/08/19 06:21:34;;;;;;;16.23;14.77;;;21.50;99.90;;;;;;7371172;19;20022;-68
2023/08/19 06:24:00;;;;;;;15.00;13.38;;;21.50;99.90;;;;;;7371393;19;20018;-68
2023/08/19 06:26:27;;;;;;;15.40;13.82;;;21.50;99.90;;;;;;7375703;19;20439;-67
2023/08/19 06:28:53;;;;;;;16.85;13.93;;;21.50;99.90;;;;;;7372631;19;20015;-69
2023/08/19 06:31:20;;;;;;;15.32;13.75;;;21.50;99.90;;;;;;7374187;19;20019;-59
2023/08/19 06:33:46;;;;;;;15.25;13.00;;;21.50;99.90;;;;;;7367203;19;20485;-59
2023/08/19 06:36:20;;;;;;;17.50;15.50;;;21.60;99.90;;;;;;7373934;19;20114;-59
2023/08/19 06:38:54;;;;;;;15.25;13.20;;;21.60;99.90;;;;;;7372631;19;20657;-67
2023/08/19 06:41:20;;;;;;;14.27;12.65;;;21.60;99.90;;;;;;7376890;19;20082;-58
2023/08/19 06:43:48;;;;;;;15.85;14.23;;;21.60;99.90;;;;;;7369387;19;20033;-59
2023/08/19 06:46:15;;;;;;;15.57;12.68;;;21.70;99.90;;;;;;7375190;19;20466;-68
2023/08/19 06:48:43;;;;;;;13.13;11.93;;;21.70;99.90;;;;;;7372425;19;20023;-68
2023/08/19 06:51:10;;;;;;;13.75;12.45;;;21.70;99.90;;;;;;7378972;19;20022;-68
2023/08/19 06:53:36;;;;;;;13.23;11.85;;;21.80;99.90;;;;;;7373816;19;20010;-68
2023/08/19 06:56:15;;;;;;;17.35;12.10;;;21.80;99.90;;;;;;7376731;19;20058;-68
2023/08/19 06:58:44;;;;;;;12.75;11.07;;;21.90;99.90;;;;;;7376146;19;20015;-67
2023/08/19 07:01:21;;;;;;;12.68;11.38;;;22.00;99.90;;;;;;7367503;19;20558;-70
2023/08/19 07:03:52;;;;;;;12.52;11.32;;;22.00;99.90;;;;;;7371684;19;20022;-68
2023/08/19 07:06:20;;;;;;;13.07;11.40;;;22.10;99.90;;;;;;7373842;19;20018;-68
2023/08/19 07:08:47;;;;;;;13.90;11.20;;;22.10;99.90;;;;;;7377375;19;20025;-68
2023/08/19 07:11:16;;;;;;;13.13;11.82;;;22.20;99.90;;;;;;7368350;19;20099;-68
2023/08/19 07:13:43;;;;;;;13.00;11.35;;;22.20;99.90;;;;;;7374891;19;20634;-70
2023/08/19 07:16:12;;;;;;;12.85;11.65;;;22.20;99.90;;;;;;7369621;19;20484;-70
2023/08/19 07:18:40;;;;;;;11.85;10.70;;;22.20;99.90;;;;;;7376624;19;20027;-70
2023/08/19 07:21:13;;;;;;;13.55;11.15;;;22.30;99.90;;;;;;7370685;19;20693;-70
2023/08/19 07:23:45;;;;;;;11.35;10.35;;;22.30;99.90;;;;;;7368749;19;20042;-70
2023/08/19 07:26:32;;;;;;;11.98;10.98;;;22.30;99.90;;;;;;7366831;19;20026;-61
2023/08/19 07:29:02;;;;;;;12.07;10.88;;;22.40;99.90;;;;;;7372961;19;20015;-61
2023/08/19 07:31:28;;;;;;;11.90;10.70;;;22.50;99.90;;;;;;7370988;19;20033;-60
2023/08/19 07:33:55;;;;;;;12.05;10.90;;;22.50;99.90;;;;;;7373818;19;20026;-59
2023/08/19 07:36:22;;;;;;;11.65;10.45;;;22.60;99.90;;;;;;7369330;19;20038;-59
2023/08/19 07:38:49;;;;;;;11.13;10.05;;;22.70;99.90;;;;;;7368872;19;20020;-60
2023/08/19 07:41:17;;;;;;;11.18;10.07;;;22.80;99.90;;;;;;7368623;19;20044;-59
2023/08/19 07:43:43;;;;;;;10.38;9.38;;;22.90;99.90;;;;;;7373921;19;20077;-69
2023/08/19 07:46:09;;;;;;;11.50;8.63;;;23.00;99.90;;;;;;7367279;19;20370;-68
2023/08/19 07:48:35;;;;;;;24.20;21.80;;;23.10;99.90;;;;;;7373237;19;20027;-59
2023/08/19 07:51:02;;;;;;;13.82;12.50;;;23.10;99.90;;;;;;7366541;19;20010;-61
2023/08/19 07:53:28;;;;;;;14.88;13.05;;;23.20;99.90;;;;;;7369176;19;20485;-67
2023/08/19 07:55:55;;;;;;;28.52;25.77;;;23.30;99.90;;;;;;7371851;19;20070;-61
2023/08/19 07:58:21;;;;;;;9.98;8.98;;;23.30;99.90;;;;;;7368471;19;20030;-61
2023/08/19 08:00:47;;;;;;;15.93;13.98;;;23.40;99.90;;;;;;7368430;19;20026;-61
2023/08/19 08:03:14;;;;;;;10.48;9.38;;;23.50;99.90;;;;;;7367903;19;20061;-61
2023/08/19 08:05:40;;;;;;;12.10;10.85;;;23.60;99.90;;;;;;7366431;19;20023;-61
2023/08/19 08:08:07;;;;;;;10.25;9.13;;;23.80;99.90;;;;;;7367106;19;20457;-61
2023/08/19 08:10:33;;;;;;;13.82;11.95;;;23.90;99.90;;;;;;7369944;19;20053;-62
2023/08/19 08:13:00;;;;;;;47.88;43.20;;;24.00;99.90;;;;;;7375384;19;20025;-62
2023/08/19 08:15:26;;;;;;;10.68;9.02;;;24.20;99.90;;;;;;7369091;19;20099;-61
2023/08/19 08:17:52;;;;;;;13.80;12.32;;;24.40;99.90;;;;;;7368417;19;20052;-62
2023/08/19 08:20:18;;;;;;;14.02;11.30;;;24.60;99.90;;;;;;7363303;19;20022;-62
2023/08/19 08:22:45;;;;;;;43.83;39.63;;;24.80;99.90;;;;;;7368514;19;20019;-70
2023/08/19 08:25:11;;;;;;;14.80;12.75;;;25.00;99.90;;;;;;7370168;19;20022;-71
2023/08/19 08:27:37;;;;;;;16.27;11.32;;;25.30;99.90;;;;;;7366604;19;20018;-71
2023/08/19 08:30:05;;;;;;;11.57;10.02;;;25.50;99.90;;;;;;7374595;19;20781;-73
2023/08/19 08:32:32;;;;;;;10.63;9.50;;;25.60;99.90;;;;;;7371283;19;20585;-72
2023/08/19 08:34:59;;;;;;;9.98;7.88;;;25.70;99.90;;;;;;7371001;19;20043;-69
2023/08/19 08:37:25;;;;;;;8.30;6.57;;;25.90;99.90;;;;;;7363643;19;20022;-69
2023/08/19 08:39:51;;;;;;;9.70;8.30;;;25.90;99.90;;;;;;7365583;19;20017;-69
2023/08/19 08:42:19;;;;;;;12.32;10.38;;;26.00;99.90;;;;;;7364211;19;20014;-73
2023/08/19 08:44:48;;;;;;;9.73;7.47;;;26.30;99.90;;;;;;7366326;19;20057;-63
2023/08/19 08:47:15;;;;;;;9.40;8.13;;;26.50;99.90;;;;;;7363124;19;20018;-70
2023/08/19 08:49:45;;;;;;;13.23;11.13;;;26.70;99.90;;;;;;7369271;19;20101;-66
2023/08/19 08:52:11;;;;;;;7.53;6.78;;;26.90;99.90;;;;;;7367529;19;20022;-63
2023/08/19 08:54:39;;;;;;;20.27;14.90;;;27.10;99.90;;;;;;7369009;19;20022;-63
2023/08/19 08:57:05;;;;;;;12.48;10.98;;;27.20;99.90;;;;;;7362591;19;20029;-63
2023/08/19 08:59:31;;;;;;;9.10;6.38;;;27.10;99.90;;;;;;7368795;19;20802;-63
2023/08/19 09:01:58;;;;;;;8.80;6.95;;;27.20;99.90;;;;;;7364250;19;20035;-63
2023/08/19 09:04:28;;;;;;;9.52;6.90;;;27.10;99.90;;;;;;7366359;19;20474;-64
2023/08/19 09:07:24;;;;;;;6.22;5.63;;;27.10;99.90;;;;;;7364563;19;20025;-64
2023/08/19 09:09:52;;;;;;;11.68;7.00;;;27.10;99.90;;;;;;7366712;19;20043;-63
2023/08/19 09:12:21;;;;;;;9.55;6.25;;;27.00;99.90;;;;;;7364198;19;20065;-62
2023/08/19 09:14:57;;;;;;;10.50;7.57;;;27.10;99.90;;;;;;7366975;19;20385;-71
2023/08/19 09:17:24;;;;;;;10.23;6.70;;;27.10;99.90;;;;;;7368197;19;20163;-74
2023/08/19 09:19:50;;;;;;;8.57;5.80;;;27.00;99.90;;;;;;7372860;19;20513;-63
2023/08/19 09:22:16;;;;;;;9.07;6.88;;;27.10;99.90;;;;;;7358571;19;20015;-70
2023/08/19 09:24:44;;;;;;;9.90;7.00;;;27.20;99.90;;;;;;7364744;19;20600;-68
2023/08/19 09:27:11;;;;;;;12.02;9.18;;;27.50;99.90;;;;;;7367063;19;20082;-67
2023/08/19 09:29:48;;;;;;;11.10;7.28;;;27.90;99.90;;;;;;7365126;19;20023;-68
2023/08/19 09:32:15;;;;;;;9.95;8.95;;;28.00;99.90;;;;;;7360727;19;20027;-69
2023/08/19 09:34:41;;;;;;;12.10;10.23;;;28.00;99.90;;;;;;7367907;19;20030;-69
2023/08/19 09:37:11;;;;;;;9.93;7.45;;;27.80;99.90;;;;;;7360741;19;20018;-69
2023/08/19 09:39:37;;;;;;;8.48;6.68;;;27.90;99.90;;;;;;7367095;19;20029;-71
2023/08/19 09:42:04;;;;;;;25.40;22.85;;;27.90;99.90;;;;;;7361346;19;20362;-63
2023/08/19 09:44:30;;;;;;;8.98;6.53;;;28.00;99.90;;;;;;7365386;19;20800;-61
2023/08/19 09:47:01;;;;;;;8.38;5.70;;;28.10;99.90;;;;;;7364963;19;20131;-63
2023/08/19 09:49:28;;;;;;;9.05;5.93;;;28.30;99.90;;;;;;7361064;19;20054;-66
2023/08/19 09:51:56;;;;;;;8.13;6.53;;;28.40;99.90;;;;;;7365571;19;20858;-66
2023/08/19 09:54:23;;;;;;;10.00;6.03;;;28.40;99.90;;;;;;7363832;19;20014;-66
2023/08/19 09:56:57;;;;;;;8.77;5.78;;;28.50;99.90;;;;;;7367128;19;20014;-67
2023/08/19 09:59:24;;;;;;;9.65;5.63;;;28.20;99.90;;;;;;7359637;19;20019;-68
2023/08/19 10:01:52;;;;;;;8.80;5.93;;;28.20;99.90;;;;;;7359596;19;20374;-67
2023/08/19 10:04:22;;;;;;;6.63;5.25;;;27.90;99.90;;;;;;7356002;19;20023;-68
2023/08/19 10:06:54;;;;;;;8.27;6.22;;;28.00;99.90;;;;;;7368393;19;20055;-68
2023/08/19 10:09:24;;;;;;;7.90;5.70;;;27.90;99.90;;;;;;7361774;19;20015;-68
2023/08/19 10:11:54;;;;;;;8.55;5.72;;;28.20;99.90;;;;;;7366417;19;20026;-67
2023/08/19 10:14:31;;;;;;;8.47;5.03;;;28.80;99.90;;;;;;7357049;19;20022;-66
2023/08/19 10:17:04;;;;;;;11.68;5.75;;;29.20;99.90;;;;;;7373995;19;20415;-65
2023/08/19 10:19:56;;;;;;;7.78;6.13;;;29.00;99.90;;;;;;7368071;19;20628;-65
2023/08/19 10:22:23;;;;;;;10.07;5.85;;;28.90;99.90;;;;;;7369066;19;20045;-65
2023/08/19 10:24:53;;;;;;;24.60;22.27;;;28.50;99.90;;;;;;7372233;19;20372;-62
2023/08/19 10:27:20;;;;;;;8.00;6.68;;;28.30;99.90;;;;;;7372140;19;20232;-61
2023/08/19 10:29:48;;;;;;;7.15;5.72;;;28.10;99.90;;;;;;7371549;19;20444;-60
2023/08/19 10:32:29;;;;;;;8.05;6.28;;;27.90;99.90;;;;;;7369535;19;20368;-60
2023/08/19 10:35:09;;;;;;;9.00;6.57;;;27.70;99.90;;;;;;7371977;19;20014;-60
2023/08/19 10:37:40;;;;;;;12.52;7.15;;;27.30;99.90;;;;;;7370843;19;20019;-67
2023/08/19 10:40:14;;;;;;;11.55;6.78;;;27.10;99.90;;;;;;7371329;19;20073;-60
2023/08/19 10:42:40;;;;;;;11.98;7.30;;;26.80;99.90;;;;;;7371705;19;20473;-61
2023/08/19 10:45:17;;;;;;;8.93;7.30;;;26.70;99.90;;;;;;7372449;19;20145;-66
2023/08/19 10:47:43;;;;;;;11.32;6.90;;;26.50;99.90;;;;;;7369139;19;20730;-60
2023/08/19 10:50:11;;;;;;;9.73;7.35;;;26.40;99.90;;;;;;7372948;19;20014;-67
2023/08/19 10:53:06;;;;;;;12.45;7.72;;;26.40;99.90;;;;;;7374647;19;20022;-79
2023/08/19 10:55:55;;;;;;;10.05;7.40;;;26.40;99.90;;;;;;7346749;19;20023;-68
2023/08/19 10:58:23;;;;;;;11.00;9.32;;;26.50;99.90;;;;;;7366016;19;20046;-67
2023/08/19 11:00:49;;;;;;;24.67;22.30;;;26.50;99.90;;;;;;7373663;19;20022;-72
2023/08/19 11:03:19;;;;;;;23.95;21.63;;;26.50;99.90;;;;;;7367116;19;20029;-71
2023/08/19 11:05:50;;;;;;;19.55;14.25;;;26.50;99.90;;;;;;7371645;19;20583;-65
2023/08/19 11:08:18;;;;;;;11.25;8.85;;;26.60;99.90;;;;;;7372025;19;20026;-69
2023/08/19 11:10:46;;;;;;;12.05;9.98;;;26.60;99.90;;;;;;7372494;19;20056;-68
2023/08/19 11:13:13;;;;;;;17.75;15.82;;;27.00;99.90;;;;;;7368220;19;20611;-72
2023/08/19 11:15:41;;;;;;;32.83;28.63;;;27.50;99.90;;;;;;7376845;19;20025;-72
2023/08/19 11:18:07;;;;;;;14.68;12.18;;;28.10;99.90;;;;;;7375037;19;20022;-72
2023/08/19 11:20:35;;;;;;;15.38;13.82;;;28.40;99.90;;;;;;7379478;19;20471;-72
2023/08/19 11:23:02;;;;;;;12.20;10.45;;;28.50;99.90;;;;;;7368211;19;20018;-69
2023/08/19 11:25:37;;;;;;;19.88;17.83;;;28.50;99.90;;;;;;7376563;19;20023;-69
2023/08/19 11:28:04;;;;;;;14.23;11.90;;;28.70;99.90;;;;;;7373130;19;20021;-69
2023/08/19 11:30:31;;;;;;;13.15;10.75;;;28.60;99.90;;;;;;7369465;19;20022;-68
2023/08/19 11:32:57;;;;;;;12.90;10.98;;;28.60;99.90;;;;;;7373850;19;20018;-71
2023/08/19 11:35:27;;;;;;;11.68;10.05;;;28.50;99.90;;;;;;7377685;19;20875;-69
2023/08/19 11:37:54;;;;;;;13.50;12.15;;;28.50;99.90;;;;;;7380505;19;20019;-68
2023/08/19 11:40:20;;;;;;;13.68;11.32;;;28.30;99.90;;;;;;7373725;19;20477;-63
2023/08/19 11:42:46;;;;;;;12.77;11.02;;;28.30;99.90;;;;;;7374752;19;20839;-63
2023/08/19 11:45:14;;;;;;;17.67;15.80;;;28.80;99.90;;;;;;7375073;19;20018;-63
2023/08/19 11:47:40;;;;;;;27.85;24.90;;;29.60;99.90;;;;;;7375773;19;20082;-69
2023/08/19 11:50:07;;;;;;;15.13;12.77;;;30.10;99.90;;;;;;7373103;19;20039;-67
2023/08/19 11:52:33;;;;;;;20.95;18.83;;;30.20;99.90;;;;;;7374471;19;20026;-63
2023/08/19 11:55:06;;;;;;;22.50;20.17;;;30.30;99.90;;;;;;7369428;19;20010;-63
2023/08/19 11:57:34;;;;;;;15.77;14.18;;;31.00;99.90;;;;;;7376566;19;20022;-69
2023/08/19 12:00:00;;;;;;;15.05;12.23;;;31.80;99.90;;;;;;7376441;19;20024;-70
2023/08/19 12:02:27;;;;;;;15.32;13.63;;;32.50;99.90;;;;;;7374884;19;20026;-70
2023/08/19 12:04:54;;;;;;;53.05;48.05;;;32.40;99.90;;;;;;7377973;19;20018;-64
2023/08/19 12:07:26;;;;;;;15.88;14.13;;;32.30;99.90;;;;;;7374772;19;20933;-64
2023/08/19 12:10:03;;;;;;;31.58;28.63;;;31.80;99.90;;;;;;7375189;19;20053;-63
2023/08/19 12:12:30;;;;;;;16.70;15.05;;;31.40;99.90;;;;;;7374341;19;20502;-66
2023/08/19 12:14:58;;;;;;;18.55;16.85;;;31.10;99.90;;;;;;7373663;19;20033;-65
2023/08/19 12:17:24;;;;;;;40.25;36.45;;;30.70;99.90;;;;;;7372336;19;20022;-65
2023/08/19 12:19:51;;;;;;;24.50;22.40;;;30.40;99.90;;;;;;7373642;19;20022;-65
2023/08/19 12:22:17;;;;;;;38.40;35.05;;;29.80;99.90;;;;;;7375633;19;20039;-65
2023/08/19 12:24:43;;;;;;;22.95;20.95;;;29.40;99.90;;;;;;7375572;19;20026;-65
2023/08/19 12:27:09;;;;;;;30.40;27.70;;;29.00;99.90;;;;;;7372208;19;20490;-65
2023/08/19 12:29:36;;;;;;;23.63;21.10;;;28.60;99.90;;;;;;7367911;19;20019;-65
2023/08/19 12:32:03;;;;;;;26.20;23.77;;;28.50;99.90;;;;;;7375881;19;20022;-65
2023/08/19 12:34:32;;;;;;;27.48;24.98;;;28.20;99.90;;;;;;7377452;19;20769;-68
2023/08/19 12:36:58;;;;;;;84.82;77.53;;;28.20;99.90;;;;;;7376445;19;20022;-66